sensor_id;sensor_type;location;lat;lon;timestamp;temperature;humidity
66119;DHT22;52912;48.564;9.302;2023-03-23T00:01:16;13.05;63.33
66119;DHT22;52912;48.564;9.302;2023-03-23T00:03:42;13.05;63.43
66119;DHT22;52912;48.564;9.302;2023-03-23T00:06:07;13.08;63.26
66119;DHT22;52912;48.564;9.302;2023-03-23T00:08:35;13.11;63.15
66119;DHT22;52912;48.564;9.302;2023-03-23T00:11:02;13.08;63.34
66119;DHT22;52912;48.564;9.302;2023-03-23T00:13:28;13.08;63.40
66119;DHT22;52912;48.564;9.302;2023-03-23T00:15:54;13.11;65.67
66119;DHT22;52912;48.564;9.302;2023-03-23T00:18:19;12.99;66.58
66119;DHT22;52912;48.564;9.302;2023-03-23T00:20:45;12.84;67.26
66119;DHT22;52912;48.564;9.302;2023-03-23T00:23:11;12.84;67.51
66119;DHT22;52912;48.564;9.302;2023-03-23T00:25:36;12.81;67.00
66119;DHT22;52912;48.564;9.302;2023-03-23T00:28:03;12.88;67.48
66119;DHT22;52912;48.564;9.302;2023-03-23T00:30:28;12.81;68.33
66119;DHT22;52912;48.564;9.302;2023-03-23T00:32:54;12.74;69.79
66119;DHT22;52912;48.564;9.302;2023-03-23T00:35:19;12.61;69.43
66119;DHT22;52912;48.564;9.302;2023-03-23T00:37:45;12.67;70.28
66119;DHT22;52912;48.564;9.302;2023-03-23T00:40:10;12.63;71.73
66119;DHT22;52912;48.564;9.302;2023-03-23T00:42:36;12.56;72.07
66119;DHT22;52912;48.564;9.302;2023-03-23T00:45:04;12.60;72.38
66119;DHT22;52912;48.564;9.302;2023-03-23T00:47:29;12.57;71.83
66119;DHT22;52912;48.564;9.302;2023-03-23T00:49:55;12.56;72.08
66119;DHT22;52912;48.564;9.302;2023-03-23T00:52:20;12.44;72.32
66119;DHT22;52912;48.564;9.302;2023-03-23T00:54:45;12.56;69.62
66119;DHT22;52912;48.564;9.302;2023-03-23T00:57:11;12.81;64.53
66119;DHT22;52912;48.564;9.302;2023-03-23T00:59:37;12.89;67.77
66119;DHT22;52912;48.564;9.302;2023-03-23T01:02:03;12.81;69.30
66119;DHT22;52912;48.564;9.302;2023-03-23T01:04:29;12.88;65.62
66119;DHT22;52912;48.564;9.302;2023-03-23T01:06:54;12.96;64.84
66119;DHT22;52912;48.564;9.302;2023-03-23T01:09:20;12.92;66.00
66119;DHT22;52912;48.564;9.302;2023-03-23T01:11:46;13.03;63.83
66119;DHT22;52912;48.564;9.302;2023-03-23T01:14:13;12.99;64.74
66119;DHT22;52912;48.564;9.302;2023-03-23T01:16:39;12.89;65.60
66119;DHT22;52912;48.564;9.302;2023-03-23T01:19:06;12.84;66.47
66119;DHT22;52912;48.564;9.302;2023-03-23T01:21:31;12.77;67.36
66119;DHT22;52912;48.564;9.302;2023-03-23T01:23:57;12.69;67.87
66119;DHT22;52912;48.564;9.302;2023-03-23T01:26:24;12.73;69.16
66119;DHT22;52912;48.564;9.302;2023-03-23T01:28:50;12.57;70.96
66119;DHT22;52912;48.564;9.302;2023-03-23T01:31:18;12.58;70.23
66119;DHT22;52912;48.564;9.302;2023-03-23T01:33:44;12.49;67.91
66119;DHT22;52912;48.564;9.302;2023-03-23T01:36:14;12.46;68.35
66119;DHT22;52912;48.564;9.302;2023-03-23T01:38:41;12.44;68.57
66119;DHT22;52912;48.564;9.302;2023-03-23T01:41:06;12.40;68.65
66119;DHT22;52912;48.564;9.302;2023-03-23T01:43:32;12.43;68.95
66119;DHT22;52912;48.564;9.302;2023-03-23T01:45:57;12.41;69.05
66119;DHT22;52912;48.564;9.302;2023-03-23T01:48:24;12.39;68.73
66119;DHT22;52912;48.564;9.302;2023-03-23T01:50:54;12.40;69.07
66119;DHT22;52912;48.564;9.302;2023-03-23T01:53:25;12.30;69.39
66119;DHT22;52912;48.564;9.302;2023-03-23T01:55:52;12.32;69.57
66119;DHT22;52912;48.564;9.302;2023-03-23T01:58:22;12.36;69.57
66119;DHT22;52912;48.564;9.302;2023-03-23T02:00:48;12.32;70.19
66119;DHT22;52912;48.564;9.302;2023-03-23T02:03:15;12.28;70.35
66119;DHT22;52912;48.564;9.302;2023-03-23T02:05:41;12.16;70.85
66119;DHT22;52912;48.564;9.302;2023-03-23T02:08:08;12.13;71.26
66119;DHT22;52912;48.564;9.302;2023-03-23T02:10:37;12.18;71.22
66119;DHT22;52912;48.564;9.302;2023-03-23T02:13:05;12.13;71.37
66119;DHT22;52912;48.564;9.302;2023-03-23T02:15:39;12.16;70.55
66119;DHT22;52912;48.564;9.302;2023-03-23T02:18:16;12.21;70.68
66119;DHT22;52912;48.564;9.302;2023-03-23T02:20:58;12.33;67.81
66119;DHT22;52912;48.564;9.302;2023-03-23T02:26:40;12.77;65.93
66119;DHT22;52912;48.564;9.302;2023-03-23T02:29:30;12.89;65.19
66119;DHT22;52912;48.564;9.302;2023-03-23T02:32:23;13.08;64.79
66119;DHT22;52912;48.564;9.302;2023-03-23T02:34:56;13.18;64.18
66119;DHT22;52912;48.564;9.302;2023-03-23T02:37:27;13.29;64.13
66119;DHT22;52912;48.564;9.302;2023-03-23T02:39:57;13.43;63.43
66119;DHT22;52912;48.564;9.302;2023-03-23T02:42:27;13.51;63.46
66119;DHT22;52912;48.564;9.302;2023-03-23T02:44:54;13.63;63.35
66119;DHT22;52912;48.564;9.302;2023-03-23T02:47:25;13.74;63.17
66119;DHT22;52912;48.564;9.302;2023-03-23T02:49:51;13.74;63.47
66119;DHT22;52912;48.564;9.302;2023-03-23T02:52:22;13.73;63.36
66119;DHT22;52912;48.564;9.302;2023-03-23T02:54:49;13.75;63.21
66119;DHT22;52912;48.564;9.302;2023-03-23T02:57:15;13.86;63.24
66119;DHT22;52912;48.564;9.302;2023-03-23T02:59:41;13.97;63.09
66119;DHT22;52912;48.564;9.302;2023-03-23T03:02:09;14.13;62.71
66119;DHT22;52912;48.564;9.302;2023-03-23T03:04:38;14.12;63.04
66119;DHT22;52912;48.564;9.302;2023-03-23T03:07:21;14.26;63.01
66119;DHT22;52912;48.564;9.302;2023-03-23T03:09:50;14.25;63.10
66119;DHT22;52912;48.564;9.302;2023-03-23T03:12:23;14.20;63.16
66119;DHT22;52912;48.564;9.302;2023-03-23T03:14:55;14.38;62.54
66119;DHT22;52912;48.564;9.302;2023-03-23T03:17:24;14.37;62.68
66119;DHT22;52912;48.564;9.302;2023-03-23T03:19:53;14.33;62.92
66119;DHT22;52912;48.564;9.302;2023-03-23T03:22:22;14.30;62.87
66119;DHT22;52912;48.564;9.302;2023-03-23T03:24:50;14.33;62.94
66119;DHT22;52912;48.564;9.302;2023-03-23T03:27:18;14.37;62.95
66119;DHT22;52912;48.564;9.302;2023-03-23T03:29:47;14.27;63.50
66119;DHT22;52912;48.564;9.302;2023-03-23T03:32:17;14.22;64.20
66119;DHT22;52912;48.564;9.302;2023-03-23T03:34:43;14.19;64.32
66119;DHT22;52912;48.564;9.302;2023-03-23T03:37:10;14.27;63.23
66119;DHT22;52912;48.564;9.302;2023-03-23T03:39:38;14.40;62.42
66119;DHT22;52912;48.564;9.302;2023-03-23T03:42:03;14.51;61.79
66119;DHT22;52912;48.564;9.302;2023-03-23T03:44:29;14.56;61.39
66119;DHT22;52912;48.564;9.302;2023-03-23T03:46:54;14.54;61.33
66119;DHT22;52912;48.564;9.302;2023-03-23T03:49:20;14.71;60.72
66119;DHT22;52912;48.564;9.302;2023-03-23T03:51:45;14.80;60.05
66119;DHT22;52912;48.564;9.302;2023-03-23T03:54:11;14.91;59.85
66119;DHT22;52912;48.564;9.302;2023-03-23T03:56:38;14.96;59.62
66119;DHT22;52912;48.564;9.302;2023-03-23T03:59:03;14.99;59.62
66119;DHT22;52912;48.564;9.302;2023-03-23T04:01:29;15.03;59.19
66119;DHT22;52912;48.564;9.302;2023-03-23T04:03:54;15.02;59.21
66119;DHT22;52912;48.564;9.302;2023-03-23T04:06:20;15.00;59.22
66119;DHT22;52912;48.564;9.302;2023-03-23T04:08:46;15.02;59.19
66119;DHT22;52912;48.564;9.302;2023-03-23T04:11:13;15.00;59.27
66119;DHT22;52912;48.564;9.302;2023-03-23T04:13:40;14.95;59.11
66119;DHT22;52912;48.564;9.302;2023-03-23T04:16:07;14.96;59.13
66119;DHT22;52912;48.564;9.302;2023-03-23T04:18:32;14.96;59.12
66119;DHT22;52912;48.564;9.302;2023-03-23T04:20:59;14.91;59.18
66119;DHT22;52912;48.564;9.302;2023-03-23T04:23:26;14.93;59.12
66119;DHT22;52912;48.564;9.302;2023-03-23T04:25:53;14.96;59.17
66119;DHT22;52912;48.564;9.302;2023-03-23T04:28:19;15.03;58.77
66119;DHT22;52912;48.564;9.302;2023-03-23T04:30:46;15.00;58.61
66119;DHT22;52912;48.564;9.302;2023-03-23T04:33:11;14.92;59.16
66119;DHT22;52912;48.564;9.302;2023-03-23T04:35:37;14.93;58.91
66119;DHT22;52912;48.564;9.302;2023-03-23T04:38:02;14.89;59.11
66119;DHT22;52912;48.564;9.302;2023-03-23T04:40:28;14.91;59.11
66119;DHT22;52912;48.564;9.302;2023-03-23T04:42:53;14.92;59.19
66119;DHT22;52912;48.564;9.302;2023-03-23T04:45:20;14.80;59.45
66119;DHT22;52912;48.564;9.302;2023-03-23T04:47:48;14.84;59.30
66119;DHT22;52912;48.564;9.302;2023-03-23T04:50:15;14.81;59.37
66119;DHT22;52912;48.564;9.302;2023-03-23T04:52:40;14.80;59.49
66119;DHT22;52912;48.564;9.302;2023-03-23T04:55:07;14.87;59.16
66119;DHT22;52912;48.564;9.302;2023-03-23T04:57:34;14.75;59.73
66119;DHT22;52912;48.564;9.302;2023-03-23T04:59:59;14.75;59.77
66119;DHT22;52912;48.564;9.302;2023-03-23T05:02:25;14.80;59.62
66119;DHT22;52912;48.564;9.302;2023-03-23T05:04:51;14.77;59.80
66119;DHT22;52912;48.564;9.302;2023-03-23T05:07:17;14.87;59.38
66119;DHT22;52912;48.564;9.302;2023-03-23T05:09:46;14.78;59.71
66119;DHT22;52912;48.564;9.302;2023-03-23T05:12:12;14.85;59.35
66119;DHT22;52912;48.564;9.302;2023-03-23T05:14:40;14.82;59.32
66119;DHT22;52912;48.564;9.302;2023-03-23T05:17:06;14.89;59.38
66119;DHT22;52912;48.564;9.302;2023-03-23T05:19:31;14.87;59.35
66119;DHT22;52912;48.564;9.302;2023-03-23T05:21:58;14.85;59.41
66119;DHT22;52912;48.564;9.302;2023-03-23T05:24:23;14.82;59.40
66119;DHT22;52912;48.564;9.302;2023-03-23T05:26:49;14.81;59.55
66119;DHT22;52912;48.564;9.302;2023-03-23T05:29:14;14.84;59.21
66119;DHT22;52912;48.564;9.302;2023-03-23T05:31:40;14.88;59.35
66119;DHT22;52912;48.564;9.302;2023-03-23T05:34:05;14.82;59.33
66119;DHT22;52912;48.564;9.302;2023-03-23T05:36:31;14.84;59.35
66119;DHT22;52912;48.564;9.302;2023-03-23T05:38:58;14.77;59.48
66119;DHT22;52912;48.564;9.302;2023-03-23T05:41:23;14.72;59.49
66119;DHT22;52912;48.564;9.302;2023-03-23T05:43:48;14.77;59.53
66119;DHT22;52912;48.564;9.302;2023-03-23T05:46:14;14.72;59.83
66119;DHT22;52912;48.564;9.302;2023-03-23T05:48:39;14.93;59.02
66119;DHT22;52912;48.564;9.302;2023-03-23T05:51:05;14.87;59.28
66119;DHT22;52912;48.564;9.302;2023-03-23T05:53:30;14.84;59.42
66119;DHT22;52912;48.564;9.302;2023-03-23T05:55:59;14.80;59.59
66119;DHT22;52912;48.564;9.302;2023-03-23T05:58:25;14.81;59.50
66119;DHT22;52912;48.564;9.302;2023-03-23T06:00:50;14.84;59.20
66119;DHT22;52912;48.564;9.302;2023-03-23T06:03:16;14.87;59.21
66119;DHT22;52912;48.564;9.302;2023-03-23T06:05:43;14.89;59.41
66119;DHT22;52912;48.564;9.302;2023-03-23T06:08:08;14.92;59.24
66119;DHT22;52912;48.564;9.302;2023-03-23T06:10:34;14.92;59.34
66119;DHT22;52912;48.564;9.302;2023-03-23T06:13:00;14.91;59.38
66119;DHT22;52912;48.564;9.302;2023-03-23T06:15:26;14.98;58.87
66119;DHT22;52912;48.564;9.302;2023-03-23T06:17:51;15.00;59.04
66119;DHT22;52912;48.564;9.302;2023-03-23T06:20:17;14.98;59.11
66119;DHT22;52912;48.564;9.302;2023-03-23T06:22:42;14.81;62.75
66119;DHT22;52912;48.564;9.302;2023-03-23T06:25:09;14.54;64.45
66119;DHT22;52912;48.564;9.302;2023-03-23T06:27:35;14.41;64.45
66119;DHT22;52912;48.564;9.302;2023-03-23T06:30:02;14.25;65.75
66119;DHT22;52912;48.564;9.302;2023-03-23T06:32:29;14.13;65.88
66119;DHT22;52912;48.564;9.302;2023-03-23T06:34:55;14.16;65.20
66119;DHT22;52912;48.564;9.302;2023-03-23T06:37:20;14.32;64.28
66119;DHT22;52912;48.564;9.302;2023-03-23T06:39:46;14.29;66.20
66119;DHT22;52912;48.564;9.302;2023-03-23T06:42:12;14.38;64.09
66119;DHT22;52912;48.564;9.302;2023-03-23T06:44:37;14.56;62.77
66119;DHT22;52912;48.564;9.302;2023-03-23T06:47:04;14.57;62.26
66119;DHT22;52912;48.564;9.302;2023-03-23T06:49:30;14.63;63.42
66119;DHT22;52912;48.564;9.302;2023-03-23T06:51:55;14.59;64.52
66119;DHT22;52912;48.564;9.302;2023-03-23T06:54:21;14.56;63.07
66119;DHT22;52912;48.564;9.302;2023-03-23T06:56:46;14.60;63.07
66119;DHT22;52912;48.564;9.302;2023-03-23T06:59:12;14.59;63.65
66119;DHT22;52912;48.564;9.302;2023-03-23T07:01:37;14.54;64.01
66119;DHT22;52912;48.564;9.302;2023-03-23T07:04:06;14.48;65.35
66119;DHT22;52912;48.564;9.302;2023-03-23T07:06:32;14.38;65.71
66119;DHT22;52912;48.564;9.302;2023-03-23T07:08:57;14.46;64.27
66119;DHT22;52912;48.564;9.302;2023-03-23T07:11:23;14.51;64.08
66119;DHT22;52912;48.564;9.302;2023-03-23T07:13:49;14.53;64.94
66119;DHT22;52912;48.564;9.302;2023-03-23T07:16:14;14.63;63.99
66119;DHT22;52912;48.564;9.302;2023-03-23T07:18:40;14.65;65.26
66119;DHT22;52912;48.564;9.302;2023-03-23T07:21:07;14.65;65.77
66119;DHT22;52912;48.564;9.302;2023-03-23T07:23:32;14.63;66.30
66119;DHT22;52912;48.564;9.302;2023-03-23T07:25:58;14.59;66.72
66119;DHT22;52912;48.564;9.302;2023-03-23T07:28:23;14.61;66.85
66119;DHT22;52912;48.564;9.302;2023-03-23T07:30:49;14.61;66.18
66119;DHT22;52912;48.564;9.302;2023-03-23T07:33:15;14.61;65.66
66119;DHT22;52912;48.564;9.302;2023-03-23T07:35:41;14.61;64.99
66119;DHT22;52912;48.564;9.302;2023-03-23T07:38:08;14.63;65.36
66119;DHT22;52912;48.564;9.302;2023-03-23T07:40:33;14.70;63.72
66119;DHT22;52912;48.564;9.302;2023-03-23T07:43:00;14.77;63.17
66119;DHT22;52912;48.564;9.302;2023-03-23T07:45:26;14.84;63.33
66119;DHT22;52912;48.564;9.302;2023-03-23T07:47:52;14.81;63.50
66119;DHT22;52912;48.564;9.302;2023-03-23T07:50:17;14.82;63.15
66119;DHT22;52912;48.564;9.302;2023-03-23T07:52:43;14.98;62.69
66119;DHT22;52912;48.564;9.302;2023-03-23T07:55:11;15.05;62.36
66119;DHT22;52912;48.564;9.302;2023-03-23T07:57:37;15.10;61.86
66119;DHT22;52912;48.564;9.302;2023-03-23T08:00:03;15.19;61.99
66119;DHT22;52912;48.564;9.302;2023-03-23T08:02:29;15.23;62.06
66119;DHT22;52912;48.564;9.302;2023-03-23T08:04:54;15.42;61.56
66119;DHT22;52912;48.564;9.302;2023-03-23T08:07:20;15.54;61.44
66119;DHT22;52912;48.564;9.302;2023-03-23T08:09:45;15.60;61.54
66119;DHT22;52912;48.564;9.302;2023-03-23T08:12:12;15.71;61.44
66119;DHT22;52912;48.564;9.302;2023-03-23T08:14:38;15.82;61.05
66119;DHT22;52912;48.564;9.302;2023-03-23T08:17:04;15.88;61.02
66119;DHT22;52912;48.564;9.302;2023-03-23T08:19:29;15.94;61.06
66119;DHT22;52912;48.564;9.302;2023-03-23T08:21:55;15.94;60.85
66119;DHT22;52912;48.564;9.302;2023-03-23T08:24:20;16.06;61.07
66119;DHT22;52912;48.564;9.302;2023-03-23T08:26:46;16.12;60.77
66119;DHT22;52912;48.564;9.302;2023-03-23T08:29:13;16.08;60.86
66119;DHT22;52912;48.564;9.302;2023-03-23T08:31:39;16.04;61.45
66119;DHT22;52912;48.564;9.302;2023-03-23T08:34:05;16.16;61.35
66119;DHT22;52912;48.564;9.302;2023-03-23T08:36:30;16.22;60.86
66119;DHT22;52912;48.564;9.302;2023-03-23T08:38:56;16.46;61.14
66119;DHT22;52912;48.564;9.302;2023-03-23T08:41:21;16.47;61.33
66119;DHT22;52912;48.564;9.302;2023-03-23T08:43:47;16.44;61.51
66119;DHT22;52912;48.564;9.302;2023-03-23T08:46:14;16.43;61.83
66119;DHT22;52912;48.564;9.302;2023-03-23T08:48:39;16.24;62.32
66119;DHT22;52912;48.564;9.302;2023-03-23T08:51:06;16.15;62.64
66119;DHT22;52912;48.564;9.302;2023-03-23T08:53:32;16.08;63.23
66119;DHT22;52912;48.564;9.302;2023-03-23T08:56:03;16.02;63.39
66119;DHT22;52912;48.564;9.302;2023-03-23T08:58:28;15.96;63.68
66119;DHT22;52912;48.564;9.302;2023-03-23T09:00:54;15.94;63.97
66119;DHT22;52912;48.564;9.302;2023-03-23T09:03:21;15.99;64.53
66119;DHT22;52912;48.564;9.302;2023-03-23T09:05:46;16.06;63.68
66119;DHT22;52912;48.564;9.302;2023-03-23T09:08:12;16.12;63.92
66119;DHT22;52912;48.564;9.302;2023-03-23T09:10:38;16.05;63.98
66119;DHT22;52912;48.564;9.302;2023-03-23T09:13:04;16.13;64.16
66119;DHT22;52912;48.564;9.302;2023-03-23T09:15:29;16.24;63.93
66119;DHT22;52912;48.564;9.302;2023-03-23T09:17:55;16.27;64.02
66119;DHT22;52912;48.564;9.302;2023-03-23T09:20:24;16.20;63.83
66119;DHT22;52912;48.564;9.302;2023-03-23T09:22:50;16.41;64.14
66119;DHT22;52912;48.564;9.302;2023-03-23T09:25:19;16.61;63.61
66119;DHT22;52912;48.564;9.302;2023-03-23T09:27:45;16.44;64.21
66119;DHT22;52912;48.564;9.302;2023-03-23T09:30:12;16.51;64.43
66119;DHT22;52912;48.564;9.302;2023-03-23T09:32:38;16.53;64.55
66119;DHT22;52912;48.564;9.302;2023-03-23T09:35:06;16.54;64.73
66119;DHT22;52912;48.564;9.302;2023-03-23T09:37:36;16.69;64.93
66119;DHT22;52912;48.564;9.302;2023-03-23T09:40:02;16.91;64.11
66119;DHT22;52912;48.564;9.302;2023-03-23T09:42:36;16.99;63.53
66119;DHT22;52912;48.564;9.302;2023-03-23T09:45:12;16.94;63.36
66119;DHT22;52912;48.564;9.302;2023-03-23T09:47:49;17.09;64.03
66119;DHT22;52912;48.564;9.302;2023-03-23T09:50:18;17.15;64.03
66119;DHT22;52912;48.564;9.302;2023-03-23T09:52:50;17.12;63.75
66119;DHT22;52912;48.564;9.302;2023-03-23T09:55:17;16.94;64.47
66119;DHT22;52912;48.564;9.302;2023-03-23T09:57:49;16.41;65.42
66119;DHT22;52912;48.564;9.302;2023-03-23T10:00:19;16.26;65.03
66119;DHT22;52912;48.564;9.302;2023-03-23T10:02:49;16.44;65.58
66119;DHT22;52912;48.564;9.302;2023-03-23T10:05:28;16.67;65.11
66119;DHT22;52912;48.564;9.302;2023-03-23T10:07:56;16.61;64.50
66119;DHT22;52912;48.564;9.302;2023-03-23T10:10:29;16.64;64.68
66119;DHT22;52912;48.564;9.302;2023-03-23T10:13:00;16.82;64.08
66119;DHT22;52912;48.564;9.302;2023-03-23T10:15:29;16.88;64.63
66119;DHT22;52912;48.564;9.302;2023-03-23T10:18:00;17.06;64.44
66119;DHT22;52912;48.564;9.302;2023-03-23T10:20:37;17.26;64.30
66119;DHT22;52912;48.564;9.302;2023-03-23T10:23:20;17.23;63.52
66119;DHT22;52912;48.564;9.302;2023-03-23T10:25:52;17.18;63.81
66119;DHT22;52912;48.564;9.302;2023-03-23T10:28:20;17.40;62.88
66119;DHT22;52912;48.564;9.302;2023-03-23T10:30:48;17.41;63.30
66119;DHT22;52912;48.564;9.302;2023-03-23T10:33:18;17.29;63.36
66119;DHT22;52912;48.564;9.302;2023-03-23T10:35:50;17.23;62.85
66119;DHT22;52912;48.564;9.302;2023-03-23T10:38:21;17.31;63.17
66119;DHT22;52912;48.564;9.302;2023-03-23T10:40:50;17.37;62.69
66119;DHT22;52912;48.564;9.302;2023-03-23T10:43:15;17.47;63.32
66119;DHT22;52912;48.564;9.302;2023-03-23T10:45:44;17.34;63.22
66119;DHT22;52912;48.564;9.302;2023-03-23T10:48:14;17.36;64.03
66119;DHT22;52912;48.564;9.302;2023-03-23T10:50:41;17.29;64.28
66119;DHT22;52912;48.564;9.302;2023-03-23T10:53:15;17.22;66.27
66119;DHT22;52912;48.564;9.302;2023-03-23T10:55:42;17.02;66.37
66119;DHT22;52912;48.564;9.302;2023-03-23T10:58:10;17.08;67.52
66119;DHT22;52912;48.564;9.302;2023-03-23T11:00:41;17.16;68.38
66119;DHT22;52912;48.564;9.302;2023-03-23T11:03:37;17.09;66.98
66119;DHT22;52912;48.564;9.302;2023-03-23T11:06:06;16.79;65.95
66119;DHT22;52912;48.564;9.302;2023-03-23T11:08:34;16.92;66.42
66119;DHT22;52912;48.564;9.302;2023-03-23T11:11:10;16.99;64.97
66119;DHT22;52912;48.564;9.302;2023-03-23T11:13:41;17.24;64.15
66119;DHT22;52912;48.564;9.302;2023-03-23T11:16:08;17.48;64.92
66119;DHT22;52912;48.564;9.302;2023-03-23T11:18:37;17.46;64.23
66119;DHT22;52912;48.564;9.302;2023-03-23T11:21:04;17.48;63.85
66119;DHT22;52912;48.564;9.302;2023-03-23T11:23:32;17.50;63.85
66119;DHT22;52912;48.564;9.302;2023-03-23T11:26:12;17.50;64.54
66119;DHT22;52912;48.564;9.302;2023-03-23T11:28:43;17.66;65.25
66119;DHT22;52912;48.564;9.302;2023-03-23T11:31:09;17.78;64.38
66119;DHT22;52912;48.564;9.302;2023-03-23T11:33:40;17.89;64.02
66119;DHT22;52912;48.564;9.302;2023-03-23T11:36:07;17.88;63.28
66119;DHT22;52912;48.564;9.302;2023-03-23T11:38:34;17.64;63.34
66119;DHT22;52912;48.564;9.302;2023-03-23T11:41:00;17.74;62.83
66119;DHT22;52912;48.564;9.302;2023-03-23T11:43:27;17.84;63.51
66119;DHT22;52912;48.564;9.302;2023-03-23T11:46:01;17.74;63.10
66119;DHT22;52912;48.564;9.302;2023-03-23T11:48:35;17.96;64.61
66119;DHT22;52912;48.564;9.302;2023-03-23T11:51:06;18.02;62.45
66119;DHT22;52912;48.564;9.302;2023-03-23T11:53:42;17.95;62.26
66119;DHT22;52912;48.564;9.302;2023-03-23T11:56:19;17.74;61.47
66119;DHT22;52912;48.564;9.302;2023-03-23T11:58:49;17.67;61.48
66119;DHT22;52912;48.564;9.302;2023-03-23T12:01:23;17.71;61.09
66119;DHT22;52912;48.564;9.302;2023-03-23T12:04:03;18.01;61.00
66119;DHT22;52912;48.564;9.302;2023-03-23T12:06:35;17.81;60.35
66119;DHT22;52912;48.564;9.302;2023-03-23T12:09:19;17.79;60.33
66119;DHT22;52912;48.564;9.302;2023-03-23T12:11:53;17.82;60.72
66119;DHT22;52912;48.564;9.302;2023-03-23T12:14:28;17.82;60.72
66119;DHT22;52912;48.564;9.302;2023-03-23T12:17:02;17.82;60.77
66119;DHT22;52912;48.564;9.302;2023-03-23T12:19:35;17.92;60.57
66119;DHT22;52912;48.564;9.302;2023-03-23T12:22:06;18.06;60.78
66119;DHT22;52912;48.564;9.302;2023-03-23T12:24:45;18.03;60.33
66119;DHT22;52912;48.564;9.302;2023-03-23T12:27:20;18.17;60.45
66119;DHT22;52912;48.564;9.302;2023-03-23T12:30:02;18.03;60.16
66119;DHT22;52912;48.564;9.302;2023-03-23T12:32:42;17.77;60.36
66119;DHT22;52912;48.564;9.302;2023-03-23T12:35:21;17.84;60.42
66119;DHT22;52912;48.564;9.302;2023-03-23T12:38:00;17.67;60.78
66119;DHT22;52912;48.564;9.302;2023-03-23T12:40:38;17.63;60.94
66119;DHT22;52912;48.564;9.302;2023-03-23T12:43:13;17.48;60.92
66119;DHT22;52912;48.564;9.302;2023-03-23T12:46:01;17.44;61.04
66119;DHT22;52912;48.564;9.302;2023-03-23T12:48:29;17.64;60.87
66119;DHT22;52912;48.564;9.302;2023-03-23T12:51:08;17.61;61.06
66119;DHT22;52912;48.564;9.302;2023-03-23T12:53:36;17.58;60.77
66119;DHT22;52912;48.564;9.302;2023-03-23T12:56:11;17.46;61.04
66119;DHT22;52912;48.564;9.302;2023-03-23T12:58:40;17.44;60.50
66119;DHT22;52912;48.564;9.302;2023-03-23T13:01:11;17.47;60.67
66119;DHT22;52912;48.564;9.302;2023-03-23T13:03:40;17.55;60.76
66119;DHT22;52912;48.564;9.302;2023-03-23T13:06:12;17.63;59.96
66119;DHT22;52912;48.564;9.302;2023-03-23T13:08:42;17.57;60.39
66119;DHT22;52912;48.564;9.302;2023-03-23T13:11:14;17.70;60.19
66119;DHT22;52912;48.564;9.302;2023-03-23T13:13:46;17.79;59.92
66119;DHT22;52912;48.564;9.302;2023-03-23T13:16:19;17.79;59.61
66119;DHT22;52912;48.564;9.302;2023-03-23T13:18:53;17.92;59.70
66119;DHT22;52912;48.564;9.302;2023-03-23T13:21:25;18.03;60.46
66119;DHT22;52912;48.564;9.302;2023-03-23T13:23:54;18.10;60.25
66119;DHT22;52912;48.564;9.302;2023-03-23T13:26:22;18.29;59.41
66119;DHT22;52912;48.564;9.302;2023-03-23T13:28:55;18.34;59.44
66119;DHT22;52912;48.564;9.302;2023-03-23T13:31:24;18.37;58.95
66119;DHT22;52912;48.564;9.302;2023-03-23T13:33:51;18.54;58.81
66119;DHT22;52912;48.564;9.302;2023-03-23T13:36:25;18.67;58.27
66119;DHT22;52912;48.564;9.302;2023-03-23T13:38:51;18.76;58.56
66119;DHT22;52912;48.564;9.302;2023-03-23T13:41:18;18.43;58.48
66119;DHT22;52912;48.564;9.302;2023-03-23T13:43:45;18.25;58.70
66119;DHT22;52912;48.564;9.302;2023-03-23T13:46:27;18.33;59.32
66119;DHT22;52912;48.564;9.302;2023-03-23T13:49:14;18.22;59.22
66119;DHT22;52912;48.564;9.302;2023-03-23T13:51:52;18.22;59.39
66119;DHT22;52912;48.564;9.302;2023-03-23T13:54:25;18.30;58.72
66119;DHT22;52912;48.564;9.302;2023-03-23T13:56:56;18.20;58.99
66119;DHT22;52912;48.564;9.302;2023-03-23T13:59:32;18.12;59.27
66119;DHT22;52912;48.564;9.302;2023-03-23T14:05:25;18.22;59.50
66119;DHT22;52912;48.564;9.302;2023-03-23T14:07:56;18.33;59.11
66119;DHT22;52912;48.564;9.302;2023-03-23T14:10:23;18.28;59.27
66119;DHT22;52912;48.564;9.302;2023-03-23T14:12:53;18.20;59.46
66119;DHT22;52912;48.564;9.302;2023-03-23T14:15:19;18.06;59.27
66119;DHT22;52912;48.564;9.302;2023-03-23T14:17:45;18.02;59.27
66119;DHT22;52912;48.564;9.302;2023-03-23T14:20:25;18.01;59.33
66119;DHT22;52912;48.564;9.302;2023-03-23T14:22:54;18.08;59.73
66119;DHT22;52912;48.564;9.302;2023-03-23T14:25:19;17.98;59.17
66119;DHT22;52912;48.564;9.302;2023-03-23T14:27:45;17.98;58.40
66119;DHT22;52912;48.564;9.302;2023-03-23T14:30:15;17.79;58.49
66119;DHT22;52912;48.564;9.302;2023-03-23T14:32:40;17.85;57.77
66119;DHT22;52912;48.564;9.302;2023-03-23T14:35:11;17.81;57.59
66119;DHT22;52912;48.564;9.302;2023-03-23T14:37:39;17.74;57.76
66119;DHT22;52912;48.564;9.302;2023-03-23T14:40:05;17.81;58.36
66119;DHT22;52912;48.564;9.302;2023-03-23T14:42:37;17.79;57.58
66119;DHT22;52912;48.564;9.302;2023-03-23T14:45:04;17.73;57.26
66119;DHT22;52912;48.564;9.302;2023-03-23T14:47:32;17.58;57.19
66119;DHT22;52912;48.564;9.302;2023-03-23T14:50:00;17.63;57.30
66119;DHT22;52912;48.564;9.302;2023-03-23T14:52:29;17.64;57.33
66119;DHT22;52912;48.564;9.302;2023-03-23T14:55:11;17.58;57.47
66119;DHT22;52912;48.564;9.302;2023-03-23T14:57:40;17.55;57.86
66119;DHT22;52912;48.564;9.302;2023-03-23T15:00:10;17.60;57.89
66119;DHT22;52912;48.564;9.302;2023-03-23T15:02:37;17.53;58.01
66119;DHT22;52912;48.564;9.302;2023-03-23T15:05:08;17.48;58.38
66119;DHT22;52912;48.564;9.302;2023-03-23T15:07:37;17.47;58.25
66119;DHT22;52912;48.564;9.302;2023-03-23T15:10:07;17.48;58.56
66119;DHT22;52912;48.564;9.302;2023-03-23T15:12:34;17.48;58.46
66119;DHT22;52912;48.564;9.302;2023-03-23T15:15:01;17.53;58.80
66119;DHT22;52912;48.564;9.302;2023-03-23T15:17:29;17.58;58.64
66119;DHT22;52912;48.564;9.302;2023-03-23T15:19:56;17.46;58.56
66119;DHT22;52912;48.564;9.302;2023-03-23T15:22:23;17.40;58.55
66119;DHT22;52912;48.564;9.302;2023-03-23T15:24:50;17.41;58.72
66119;DHT22;52912;48.564;9.302;2023-03-23T15:27:24;17.43;58.95
66119;DHT22;52912;48.564;9.302;2023-03-23T15:29:51;17.43;58.95
66119;DHT22;52912;48.564;9.302;2023-03-23T15:32:25;17.44;58.83
66119;DHT22;52912;48.564;9.302;2023-03-23T15:34:51;17.47;59.15
66119;DHT22;52912;48.564;9.302;2023-03-23T15:37:20;17.41;59.36
66119;DHT22;52912;48.564;9.302;2023-03-23T15:39:46;17.34;59.35
66119;DHT22;52912;48.564;9.302;2023-03-23T15:42:22;17.22;59.40
66119;DHT22;52912;48.564;9.302;2023-03-23T15:44:55;17.23;59.29